createdAt,value
2023-03-11T00:03:26.118Z,4.2
2023-03-11T00:09:06.515Z,4.2
2023-03-11T00:20:07.344Z,4.2
2023-03-11T00:25:44.464Z,4.3
2023-03-11T00:31:15.337Z,4.3
2023-03-11T00:36:44.645Z,4.3
2023-03-11T00:42:09.265Z,4.1
2023-03-11T00:47:49.680Z,4
2023-03-11T00:53:32.864Z,4.1
2023-03-11T00:59:00.524Z,4.2
2023-03-11T01:04:32.668Z,4.2
2023-03-11T01:10:09.969Z,4.1
2023-03-11T01:15:31.434Z,4.1
2023-03-11T01:21:12.046Z,4
2023-03-11T01:26:34.517Z,4
2023-03-11T01:32:16.748Z,4.1
2023-03-11T01:37:58.072Z,4.1
2023-03-11T01:43:22.602Z,4.1
2023-03-11T01:49:10.350Z,4.1
2023-03-11T01:54:37.929Z,3.7
2023-03-11T02:00:21.819Z,3.4
2023-03-11T02:05:42.296Z,3.3
2023-03-11T02:11:23.583Z,3.3
2023-03-11T02:17:03.176Z,3.3
2023-03-11T02:22:36.622Z,3.2
2023-03-11T02:27:50.028Z,3.2
2023-03-11T02:33:16.459Z,3.2
2023-03-11T02:39:03.476Z,3.2
2023-03-11T02:44:28.694Z,3.2
2023-03-11T02:50:11.932Z,3.2
2023-03-11T02:55:54.367Z,3.2
2023-03-11T03:01:15.374Z,3.3
2023-03-11T03:06:52.703Z,3.2
2023-03-11T03:12:37.000Z,3.2
2023-03-11T03:17:58.059Z,3.4
2023-03-11T03:23:35.296Z,3.4
2023-03-11T03:29:12.292Z,3.3
2023-03-11T03:34:41.693Z,3.3
2023-03-11T03:40:11.309Z,3.3
2023-03-11T03:45:58.896Z,3.5
2023-03-11T03:51:34.258Z,3.4
2023-03-11T03:57:11.345Z,3.3
2023-03-11T04:02:30.639Z,3.2
2023-03-11T04:08:03.752Z,3.1
2023-03-11T04:13:45.299Z,3.2
2023-03-11T04:19:04.454Z,3.2
2023-03-11T04:24:54.881Z,3.2
2023-03-11T04:30:06.715Z,3
2023-03-11T04:35:57.124Z,3.2
2023-03-11T04:41:34.950Z,3.2
2023-03-11T04:46:48.477Z,3.2
2023-03-11T04:52:44.211Z,3.1
2023-03-11T04:58:20.400Z,3.1
2023-03-11T05:03:50.977Z,3.2
2023-03-11T05:09:05.341Z,3.2
2023-03-11T05:14:39.504Z,3.1
2023-03-11T05:20:20.160Z,3.2
2023-03-11T05:26:03.407Z,3.2
2023-03-11T05:31:22.802Z,3.2
2023-03-11T05:37:13.823Z,3.1
2023-03-11T05:42:35.160Z,3.1
2023-03-11T05:47:58.425Z,3.1
2023-03-11T05:53:49.831Z,2.9
2023-03-11T05:59:04.631Z,2.8
2023-03-11T06:04:53.712Z,2.7
2023-03-11T06:10:29.798Z,2.5
2023-03-11T06:15:56.000Z,2.3
2023-03-11T06:21:42.196Z,2.2
2023-03-11T06:27:07.991Z,2
2023-03-11T06:32:33.058Z,1.9
2023-03-11T06:38:12.137Z,1.8
2023-03-11T06:43:34.079Z,1.6
2023-03-11T06:49:22.335Z,1.4
2023-03-11T06:54:59.639Z,1.2
2023-03-11T07:00:14.471Z,0.9
2023-03-11T07:05:45.956Z,0.8
2023-03-11T07:11:28.310Z,0.8
2023-03-11T07:17:18.685Z,0.8
2023-03-11T07:22:43.348Z,1
2023-03-11T07:28:25.124Z,1.1
2023-03-11T07:33:38.613Z,1.1
2023-03-11T07:39:27.910Z,1.2
2023-03-11T07:45:02.219Z,1.1
2023-03-11T07:50:37.209Z,1.1
2023-03-11T07:55:53.734Z,1
2023-03-11T08:01:19.662Z,1
2023-03-11T08:06:59.806Z,0.9
2023-03-11T08:12:39.556Z,0.8
2023-03-11T08:18:13.719Z,0.8
2023-03-11T08:23:47.824Z,0.8
2023-03-11T08:29:13.561Z,0.7
2023-03-11T08:34:54.008Z,0.7
2023-03-11T08:40:25.206Z,0.6
2023-03-11T08:45:56.922Z,0.6
2023-03-11T08:51:36.206Z,0.7
2023-03-11T08:57:21.596Z,0.7
2023-03-11T09:02:47.432Z,0.7
2023-03-11T09:08:13.244Z,0.7
2023-03-11T09:13:39.635Z,0.8
2023-03-11T09:19:30.426Z,1
2023-03-11T09:25:10.887Z,1
2023-03-11T09:30:19.819Z,1.3
2023-03-11T09:35:50.211Z,1.3
2023-03-11T09:41:45.023Z,1.3
2023-03-11T09:47:08.280Z,1.4
2023-03-11T09:52:59.414Z,1.5
2023-03-11T09:58:12.937Z,1.7
2023-03-11T10:04:00.562Z,1.6
2023-03-11T10:09:17.046Z,1.6
2023-03-11T10:15:11.974Z,2
2023-03-11T10:20:21.488Z,2
2023-03-11T10:26:00.112Z,2.3
2023-03-11T10:31:47.132Z,2.2
2023-03-11T10:37:26.281Z,2.4
2023-03-11T10:43:00.771Z,2.5
2023-03-11T10:48:15.671Z,2.9
2023-03-11T10:53:50.118Z,2.8
2023-03-11T10:59:36.958Z,2.9
2023-03-11T11:04:55.379Z,2.7
2023-03-11T11:10:25.840Z,2.7
2023-03-11T11:16:06.732Z,3.1
2023-03-11T11:21:39.481Z,3
2023-03-11T11:27:10.091Z,3.1
2023-03-11T11:32:48.810Z,3.3
2023-03-11T11:38:39.002Z,3.4
2023-03-11T11:43:48.735Z,3.3
2023-03-11T11:49:36.923Z,3.4
2023-03-11T11:54:54.364Z,3.6
2023-03-11T12:00:38.242Z,3.7
2023-03-11T12:06:16.408Z,3.7
2023-03-11T12:11:55.163Z,3.5
2023-03-11T12:17:29.536Z,4
2023-03-11T12:23:06.394Z,4.1
2023-03-11T12:28:32.125Z,3.9
2023-03-11T12:34:15.215Z,4
2023-03-11T12:39:51.284Z,3.8
2023-03-11T12:45:03.181Z,4.1
2023-03-11T12:50:52.630Z,4.5
2023-03-11T12:56:31.776Z,4.6
2023-03-11T13:02:05.710Z,4.4
2023-03-11T13:07:32.055Z,4.5
2023-03-11T13:13:08.986Z,4.7
2023-03-11T13:18:34.670Z,5
2023-03-11T13:24:20.397Z,4.7
2023-03-11T13:29:42.284Z,5.2
2023-03-11T13:35:35.320Z,4.6
2023-03-11T13:40:48.674Z,4.6
2023-03-11T13:46:46.270Z,4.8
2023-03-11T13:52:00.437Z,4.6
2023-03-11T13:57:45.158Z,4.7
2023-03-11T14:03:04.624Z,4.8
2023-03-11T14:08:54.178Z,4.8
2023-03-11T14:14:12.027Z,5
2023-03-11T14:19:56.461Z,4.7
2023-03-11T14:25:41.009Z,4.9
2023-03-11T14:30:58.718Z,4.6
2023-03-11T14:36:28.683Z,4.5
2023-03-11T14:41:56.111Z,4.6
2023-03-11T14:47:47.625Z,4.6
2023-03-11T14:53:21.110Z,4.7
2023-03-11T14:58:53.195Z,4.6
2023-03-11T15:04:28.704Z,4.5
2023-03-11T15:09:57.867Z,4.5
2023-03-11T15:15:36.190Z,4.4
2023-03-11T15:21:16.536Z,4.4
2023-03-11T15:26:20.858Z,4.3
2023-03-11T15:32:21.795Z,4.4
2023-03-11T15:37:45.695Z,4.3
2023-03-11T15:43:25.809Z,4.3
2023-03-11T15:48:39.048Z,4.2
2023-03-11T15:54:14.517Z,4.2
2023-03-11T15:59:56.074Z,4.3
2023-03-11T16:05:20.706Z,4.1
2023-03-11T16:10:58.575Z,4.1
2023-03-11T16:16:27.459Z,4.1
2023-03-11T16:22:14.539Z,4.1
2023-03-11T16:27:52.631Z,4.1
2023-03-11T16:33:11.021Z,4.2
2023-03-11T16:38:52.667Z,4.2
2023-03-11T16:44:32.515Z,4.1
2023-03-11T16:49:45.786Z,4.1
2023-03-11T16:55:32.637Z,4
2023-03-11T17:00:58.802Z,4
2023-03-11T17:06:39.172Z,4
2023-03-11T17:12:11.495Z,4.1
2023-03-11T17:17:53.776Z,4.1
2023-03-11T17:23:14.139Z,4
2023-03-11T17:29:02.390Z,4.1
2023-03-11T17:34:19.273Z,4.2
2023-03-11T17:40:07.885Z,4.1
2023-03-11T17:45:39.780Z,4.1
2023-03-11T17:50:53.358Z,4
2023-03-11T17:56:40.631Z,4
2023-03-11T18:02:22.623Z,4
2023-03-11T18:07:33.074Z,3.8
2023-03-11T18:13:26.477Z,3.8
2023-03-11T18:18:38.730Z,3.8
2023-03-11T18:24:07.580Z,3.8
2023-03-11T18:30:03.274Z,3.7
2023-03-11T18:35:29.349Z,3.8
2023-03-11T18:41:07.869Z,3.8
2023-03-11T18:46:19.728Z,3.8
2023-03-11T18:52:01.364Z,3.6
2023-03-11T18:57:25.953Z,3.6
2023-03-11T19:03:07.293Z,3.6
2023-03-11T19:08:41.031Z,3.7
2023-03-11T19:14:04.038Z,3.6
2023-03-11T19:19:48.106Z,3.6
2023-03-11T19:25:14.941Z,3.5
2023-03-11T19:30:57.917Z,3.5
2023-03-11T19:36:30.798Z,3.5
2023-03-11T19:42:10.333Z,3.5
2023-03-11T19:47:22.790Z,3.5
2023-03-11T19:53:03.829Z,3.6
2023-03-11T19:58:43.502Z,3.6
2023-03-11T20:04:20.636Z,3.7
2023-03-11T20:09:59.514Z,3.7
2023-03-11T20:15:16.162Z,3.6
2023-03-11T20:21:05.421Z,3.7
2023-03-11T20:26:31.056Z,3.7
2023-03-11T20:31:55.053Z,3.6
2023-03-11T20:37:41.177Z,3.7
2023-03-11T20:43:00.008Z,3.6
2023-03-11T20:48:28.447Z,3.6
2023-03-11T20:54:18.012Z,3.6
2023-03-11T21:05:03.850Z,3.5
2023-03-11T21:10:56.795Z,3.6
2023-03-11T21:16:16.885Z,3.5
2023-03-11T21:21:48.269Z,3.5
2023-03-11T21:27:28.437Z,3.5
2023-03-11T21:33:02.508Z,3.6
2023-03-11T21:38:31.584Z,3.5
2023-03-11T21:44:15.300Z,3.6
2023-03-11T21:49:36.843Z,3.5
2023-03-11T21:55:12.501Z,3.5
2023-03-11T22:00:41.836Z,3.5
2023-03-11T22:06:14.566Z,3.4
2023-03-11T22:11:44.475Z,3.4
2023-03-11T22:17:27.222Z,3.4
2023-03-11T22:23:01.284Z,3.4
2023-03-11T22:28:39.694Z,3.4
2023-03-11T22:33:59.491Z,3.4
2023-03-11T22:39:35.325Z,3.4
2023-03-11T22:45:16.756Z,3.5
2023-03-11T22:50:38.858Z,3.5
2023-03-11T22:56:22.063Z,3.5
2023-03-11T23:01:58.997Z,3.6
2023-03-11T23:07:22.587Z,3.6
2023-03-11T23:13:07.151Z,3.6
2023-03-11T23:18:17.725Z,3.5
2023-03-11T23:24:11.620Z,3.6
2023-03-11T23:29:43.315Z,3.6
2023-03-11T23:35:05.302Z,3.5
2023-03-11T23:40:50.187Z,3.5
2023-03-11T23:46:04.789Z,3.5
2023-03-11T23:51:39.107Z,3.4
2023-03-11T23:57:15.352Z,3.4
